Atlantic Aquarius — VRDX6 — position and weather

sailwx.info

Track history (hours):
 
Tides and Currents Weather Stations Pressure Air Temp Water Temp Dewpoint Dewpoint Depression Visibility Wind Speed Wind Dir Waves Ship Positions

Atlantic Aquarius

Last reported at 2018-Feb-20 22:55 UTC. Time now 2018-Feb-26 02:07 UTC.
Position N 01°15' E 104°02'.

Length 183 m; draft 11.8 m.

Type: Tanker. MMSI: 477071400.

Date/timePositionNaut miles runAvg speedWind from/ knotsBaromVisibWave heightAir tempDewpointWater temp
2018-Feb-20 22:55N 01°15' E 104°02'511.5
2018-Feb-20 22:30N 01°14' E 103°57'611.6
2018-Feb-20 21:58N 01°11' E 103°51'511.4
2018-Feb-20 21:30N 01°08' E 103°47'611.2
2018-Feb-20 20:59N 01°04' E 103°42'5 9.7
2018-Feb-20 20:27N 01°03' E 103°37'611.5
2018-Feb-20 19:55N 01°07' E 103°32'3 7.6
2018-Feb-20 19:30N 01°09' E 103°34'5 9.6
2018-Feb-20 19:00N 01°11' E 103°38'3 6.5
2018-Feb-20 18:30N 01°11' E 103°42'0 0.7
2018-Feb-20 17:54N 01°11' E 103°42'0 0.1
2018-Feb-20 17:18N 01°11' E 103°42'0 0.0
2018-Feb-20 17:00N 01°11' E 103°42'0 0.0
2018-Feb-20 16:30N 01°11' E 103°42'0 0.1
2018-Feb-20 14:30N 01°11' E 103°42'0 0.0
2018-Feb-20 12:24N 01°11' E 103°42'0 0.0
2018-Feb-20 11:45N 01°11' E 103°42'0 0.0
2018-Feb-20 11:27N 01°11' E 103°42'0 0.0
2018-Feb-20 10:51N 01°11' E 103°42'0 0.0
2018-Feb-20 10:27N 01°11' E 103°42'0 0.0
2018-Feb-20 10:00N 01°11' E 103°42'0 0.0
2018-Feb-20 09:24N 01°11' E 103°42'0 0.0
2018-Feb-20 08:57N 01°11' E 103°42'0 0.0
2018-Feb-20 08:21N 01°11' E 103°42'0 0.0
2018-Feb-20 07:57N 01°11' E 103°42'0 0.2
2018-Feb-20 07:30N 01°11' E 103°42'0 0.1
2018-Feb-20 06:57N 01°11' E 103°42'0 0.1
2018-Feb-20 06:30N 01°11' E 103°42'0 0.2
2018-Feb-20 06:00N 01°11' E 103°42'1 2.8
2018-Feb-20 05:30N 01°11' E 103°41'5 9.4
2018-Feb-20 05:00N 01°12' E 103°36'3 6.9
2018-Feb-20 04:30N 01°11' E 103°33'5 8.8
2018-Feb-20 03:59N 01°09' E 103°29'  
Track history (hours):
 
Tides and Currents Weather Stations Pressure Air Temp Water Temp Dewpoint Dewpoint Depression Visibility Wind Speed Wind Dir Waves Ship Positions

Atlantic Aquarius

Last reported at 2018-Feb-20 22:55 UTC. Time now 2018-Feb-26 02:07 UTC.
Position N 01°15' E 104°02'.

Length 183 m; draft 11.8 m.

Type: Tanker. MMSI: 477071400.

Date/timePositionNaut miles runAvg speedWind from/ knotsBaromVisibWave heightAir tempDewpointWater temp
2018-Feb-20 22:55N 01°15' E 104°02'511.5
2018-Feb-20 22:30N 01°14' E 103°57'611.6
2018-Feb-20 21:58N 01°11' E 103°51'511.4
2018-Feb-20 21:30N 01°08' E 103°47'611.2
2018-Feb-20 20:59N 01°04' E 103°42'5 9.7
2018-Feb-20 20:27N 01°03' E 103°37'611.5
2018-Feb-20 19:55N 01°07' E 103°32'3 7.6
2018-Feb-20 19:30N 01°09' E 103°34'5 9.6
2018-Feb-20 19:00N 01°11' E 103°38'3 6.5
2018-Feb-20 18:30N 01°11' E 103°42'0 0.7
2018-Feb-20 17:54N 01°11' E 103°42'0 0.1
2018-Feb-20 17:18N 01°11' E 103°42'0 0.0
2018-Feb-20 17:00N 01°11' E 103°42'0 0.0
2018-Feb-20 16:30N 01°11' E 103°42'0 0.1
2018-Feb-20 14:30N 01°11' E 103°42'0 0.0
2018-Feb-20 12:24N 01°11' E 103°42'0 0.0
2018-Feb-20 11:45N 01°11' E 103°42'0 0.0
2018-Feb-20 11:27N 01°11' E 103°42'0 0.0
2018-Feb-20 10:51N 01°11' E 103°42'0 0.0
2018-Feb-20 10:27N 01°11' E 103°42'0 0.0
2018-Feb-20 10:00N 01°11' E 103°42'0 0.0
2018-Feb-20 09:24N 01°11' E 103°42'0 0.0
2018-Feb-20 08:57N 01°11' E 103°42'0 0.0
2018-Feb-20 08:21N 01°11' E 103°42'0 0.0
2018-Feb-20 07:57N 01°11' E 103°42'0 0.2
2018-Feb-20 07:30N 01°11' E 103°42'0 0.1
2018-Feb-20 06:57N 01°11' E 103°42'0 0.1
2018-Feb-20 06:30N 01°11' E 103°42'0 0.2
2018-Feb-20 06:00N 01°11' E 103°42'1 2.8
2018-Feb-20 05:30N 01°11' E 103°41'5 9.4
2018-Feb-20 05:00N 01°12' E 103°36'3 6.9
2018-Feb-20 04:30N 01°11' E 103°33'5 8.8
2018-Feb-20 03:59N 01°09' E 103°29'  

Dump ship's entire track history